Time;durP1;ratioP1;P1;durP2;ratioP2;P2;SDS_P1;SDS_P2;PMS_P1;PMS_P2;Temp;Humidity;BMP_temperature;BMP_pressure;BME280_temperature;BME280_humidity;BME280_pressure;Samples;Min_cycle;Max_cycle;Signal;HPM_P1;HPM_P2
2022/08/11 00:00:07;;;;;;;3.23;2.93;;;;;20.50;99305.00;;;;16712695;28;20222;-48
2022/08/11 00:08:10;;;;;;;2.83;2.63;;;;;20.40;99307.00;;;;16714607;28;20202;-48
2022/08/11 00:16:17;;;;;;;3.00;2.80;;;;;20.30;99312.00;;;;16706767;28;20236;-47
2022/08/11 00:24:21;;;;;;;2.97;2.67;;;;;20.60;99299.00;;;;16710774;28;20226;-48
2022/08/11 00:32:25;;;;;;;6.20;3.23;;;;;20.30;99305.00;;;;16722843;28;20213;-47
2022/08/11 00:40:33;;;;;;;2.77;2.57;;;;;20.40;99308.00;;;;16707477;28;20603;-48
2022/08/11 00:48:45;;;;;;;2.83;2.63;;;;;20.10;99314.00;;;;16711455;28;20273;-47
2022/08/11 00:57:16;;;;;;;3.20;2.67;;;;;19.90;99310.00;;;;16710893;28;20234;-48
2022/08/11 01:05:41;;;;;;;2.97;2.37;;;;;19.80;99309.00;;;;16705944;28;20227;-47
2022/08/11 01:14:19;;;;;;;2.87;2.57;;;;;20.70;99307.00;;;;16704393;28;20214;-48
2022/08/11 01:23:05;;;;;;;4.80;2.50;;;;;20.30;99296.00;;;;16724654;28;20222;-47
2022/08/11 01:31:37;;;;;;;3.60;2.60;;;;;20.10;99299.00;;;;16721055;28;20756;-48
2022/08/11 01:40:07;;;;;;;3.20;2.80;;;;;20.00;99292.00;;;;16724075;28;20230;-48
2022/08/11 01:48:16;;;;;;;3.57;3.27;;;;;19.90;99297.00;;;;16698090;28;20214;-48
2022/08/11 01:56:45;;;;;;;3.20;2.90;;;;;19.90;99276.00;;;;16713719;28;20709;-47
2022/08/11 02:04:56;;;;;;;3.80;3.20;;;;;19.80;99289.00;;;;16698937;28;20229;-47
2022/08/11 02:13:12;;;;;;;3.47;3.17;;;;;19.70;99285.00;;;;16711559;28;20645;-47
2022/08/11 02:29:49;;;;;;;4.57;2.83;;;;;19.80;99276.00;;;;16717117;28;20584;-47
2022/08/11 02:38:01;;;;;;;4.07;3.37;;;;;19.70;99278.00;;;;16708529;28;20209;-47
2022/08/11 02:46:18;;;;;;;3.10;2.80;;;;;19.70;99273.00;;;;16710054;28;20237;-48
2022/08/11 02:54:26;;;;;;;3.17;2.97;;;;;20.10;99277.00;;;;16704501;28;20220;-48
2022/08/11 03:03:11;;;;;;;3.50;3.20;;;;;19.40;99280.00;;;;16695675;28;20238;-47
2022/08/11 03:19:49;;;;;;;3.33;3.00;;;;;18.80;99286.00;;;;16717889;28;20308;-48
2022/08/11 03:27:59;;;;;;;4.53;3.57;;;;;18.70;99288.00;;;;16716974;28;20209;-47
2022/08/11 03:36:28;;;;;;;3.93;3.30;;;;;18.20;99289.00;;;;16722033;28;20239;-47
2022/08/11 03:44:43;;;;;;;5.63;3.33;;;;;18.20;99298.00;;;;16726385;28;20733;-47
2022/08/11 03:52:53;;;;;;;4.87;3.93;;;;;18.50;99298.00;;;;16711801;28;20229;-47
2022/08/11 04:01:33;;;;;;;3.57;3.20;;;;;18.40;99294.00;;;;16715989;28;20318;-47
2022/08/11 04:10:12;;;;;;;4.00;3.70;;;;;19.00;99289.00;;;;16697459;28;20228;-48
2022/08/11 04:18:50;;;;;;;3.83;3.60;;;;;18.60;99297.00;;;;16706369;28;20291;-48
2022/08/11 04:27:16;;;;;;;4.80;4.40;;;;;18.40;99293.00;;;;16705964;28;20225;-47
2022/08/11 04:35:31;;;;;;;4.20;3.80;;;;;18.00;99295.00;;;;16715421;28;20224;-47
2022/08/11 04:44:21;;;;;;;5.07;4.57;;;;;18.10;99304.00;;;;16701215;28;20227;-47
2022/08/11 05:01:42;;;;;;;5.57;4.50;;;;;18.90;99307.00;;;;16835583;28;20232;-48
2022/08/11 05:10:12;;;;;;;4.80;4.40;;;;;19.60;99307.00;;;;16815673;28;20249;-48
2022/08/11 05:35:07;;;;;;;7.73;5.17;;;;;20.60;99300.00;;;;16825350;28;20215;-48
2022/08/11 06:00:02;;;;;;;8.73;6.00;;;;;22.10;99304.00;;;;16828067;28;20764;-49
2022/08/11 06:08:09;;;;;;;4.80;4.37;;;;;22.30;99292.00;;;;16821797;28;20200;-48
2022/08/11 06:16:14;;;;;;;5.27;4.77;;;;;22.60;99295.00;;;;16817754;28;20735;-48
2022/08/11 06:24:18;;;;;;;8.17;5.43;;;;;23.70;99293.00;;;;16823892;28;20369;-48
2022/08/11 06:32:24;;;;;;;12.13;5.93;;;;;24.80;99287.00;;;;16823015;28;20288;-48
2022/08/11 06:40:35;;;;;;;9.83;7.10;;;;;25.20;99283.00;;;;16807252;28;20789;-48
2022/08/11 06:48:40;;;;;;;22.90;9.10;;;;;25.20;99285.00;;;;16823679;28;20189;-48
2022/08/11 07:05:08;;;;;;;12.43;7.50;;;;;26.30;99285.00;;;;16814038;28;20213;-49
2022/08/11 07:29:55;;;;;;;10.63;8.07;;;;;26.70;99270.00;;;;16812740;28;20669;-48
2022/08/11 07:38:02;;;;;;;8.07;7.27;;;;;26.80;99256.00;;;;16828414;28;20197;-49
2022/08/11 07:54:32;;;;;;;7.10;5.20;;;;;27.70;99258.00;;;;16611681;28;20332;-48
2022/08/11 08:19:20;;;;;;;4.23;3.50;;;;;27.90;99254.00;;;;16627145;28;20246;-49
2022/08/11 08:27:25;;;;;;;4.70;4.20;;;;;27.70;99262.00;;;;16678058;28;20307;-49
2022/08/11 08:35:29;;;;;;;4.30;4.00;;;;;28.10;99262.00;;;;16813758;28;20225;-48
2022/08/11 08:43:33;;;;;;;4.77;4.00;;;;;28.40;99266.00;;;;16833670;28;20766;-50
2022/08/11 08:51:38;;;;;;;4.17;3.47;;;;;28.10;99269.00;;;;16833366;28;20227;-49
2022/08/11 08:59:45;;;;;;;5.07;4.30;;;;;28.50;99255.00;;;;16848211;28;20258;-49
2022/08/11 09:07:48;;;;;;;8.23;6.37;;;;;28.40;99253.00;;;;16825760;28;20568;-49
2022/08/11 09:15:52;;;;;;;4.43;3.90;;;;;28.70;99246.00;;;;16792755;28;20221;-49
2022/08/11 09:32:19;;;;;;;4.37;3.80;;;;;29.10;99266.00;;;;16822823;28;20293;-48
2022/08/11 09:40:32;;;;;;;5.60;3.30;;;;;29.10;99268.00;;;;16828368;28;20225;-48
2022/08/11 09:48:40;;;;;;;4.10;3.70;;;;;29.50;99249.00;;;;16839453;28;20196;-49
2022/08/11 10:13:25;;;;;;;3.33;3.10;;;;;30.50;99245.00;;;;16829428;28;20243;-49
2022/08/11 10:21:33;;;;;;;2.93;2.63;;;;;31.40;99228.00;;;;16813077;28;20224;-49
2022/08/11 10:38:02;;;;;;;2.87;2.67;;;;;31.40;99221.00;;;;16811494;28;20197;-49
2022/08/11 11:02:57;;;;;;;3.57;2.90;;;;;32.10;99198.00;;;;16648972;28;20246;-79
2022/08/11 11:11:02;;;;;;;3.57;3.27;;;;;32.10;99190.00;;;;16643882;28;20276;-78
2022/08/11 11:19:07;;;;;;;5.23;3.30;;;;;32.40;99173.00;;;;16651718;28;20348;-79
2022/08/11 11:27:18;;;;;;;2.57;2.30;;;;;31.20;99171.00;;;;16636231;28;20237;-79
2022/08/11 11:35:36;;;;;;;3.30;2.43;;;;;32.90;99159.00;;;;16668167;28;20202;-79
2022/08/11 11:43:40;;;;;;;3.47;2.53;;;;;31.80;99152.00;;;;16675717;28;20222;-78
2022/08/11 11:51:42;;;;;;;2.50;2.40;;;;;33.40;99141.00;;;;16653163;28;20226;-79
2022/08/11 12:08:15;;;;;;;6.27;3.10;;;;;32.60;99150.00;;;;16683660;28;20226;-78
2022/08/11 12:16:21;;;;;;;2.50;2.30;;;;;34.00;99148.00;;;;16687937;28;20210;-78
2022/08/11 12:32:45;;;;;;;4.30;2.70;;;;;35.80;99128.00;;;;16677973;28;20215;-77
2022/08/11 13:05:57;;;;;;;3.73;2.20;;;;;35.50;99101.00;;;;16655168;28;20280;-78
2022/08/11 13:14:00;;;;;;;4.30;2.33;;;;;34.20;99077.00;;;;16662053;28;20225;-81
2022/08/11 13:22:06;;;;;;;2.80;2.43;;;;;35.90;99084.00;;;;16732879;22;20233;-48
2022/08/11 13:38:31;;;;;;;2.77;1.90;;;;;35.20;99069.00;;;;16811826;28;20708;-49
2022/08/11 13:46:33;;;;;;;2.60;2.27;;;;;35.50;99070.00;;;;16800644;28;20235;-48
2022/08/11 13:54:38;;;;;;;3.73;2.40;;;;;35.80;99055.00;;;;16819375;28;20218;-49
2022/08/11 14:02:44;;;;;;;3.03;2.77;;;;;35.50;99056.00;;;;16817722;28;20366;-48
2022/08/11 14:13:36;;;;;;;2.87;1.80;;;;;36.80;99039.00;;;;16824379;28;20220;-50
2022/08/11 14:19:14;;;;;;;2.87;2.33;;;;;36.80;99033.00;;;;16818880;28;20311;-50
2022/08/11 14:27:21;;;;;;;5.70;2.03;;;;;37.10;99022.00;;;;16828576;28;20266;-49
2022/08/11 14:35:24;;;;;;;3.40;2.23;;;;;35.00;99030.00;;;;16849142;28;20688;-49
2022/08/11 14:51:49;;;;;;;3.30;2.23;;;;;36.80;99021.00;;;;16819806;28;20331;-50
2022/08/11 14:59:53;;;;;;;2.50;2.30;;;;;35.90;99009.00;;;;16804736;28;20259;-48
2022/08/11 15:07:57;;;;;;;3.77;2.80;;;;;36.80;99000.00;;;;16827353;28;20302;-49
2022/08/11 15:24:22;;;;;;;3.07;2.67;;;;;37.20;98981.00;;;;16829015;28;20307;-48
2022/08/11 15:49:11;;;;;;;3.83;2.40;;;;;36.90;98971.00;;;;16841156;28;20213;-49
2022/08/11 16:04:10;;;;;;;4.40;2.87;;;;;37.70;98964.00;;;;16836960;28;20227;-51
2022/08/11 16:05:39;;;;;;;4.20;2.20;;;;;37.60;98960.00;;;;16825438;28;20227;-51
2022/08/11 16:22:06;;;;;;;4.73;2.40;;;;;37.20;98951.00;;;;16828403;28;20217;-50
2022/08/11 16:30:09;;;;;;;4.70;2.40;;;;;36.80;98946.00;;;;16838017;28;20216;-50
2022/08/11 16:54:56;;;;;;;2.17;1.97;;;;;36.10;98950.00;;;;16808045;28;20716;-49
2022/08/11 17:19:47;;;;;;;4.13;2.20;;;;;37.10;98944.00;;;;16821227;28;20404;-49
2022/08/11 17:27:51;;;;;;;5.07;2.73;;;;;37.10;98941.00;;;;16827161;28;20756;-48
2022/08/11 17:35:54;;;;;;;4.50;3.10;;;;;36.30;98934.00;;;;16814623;28;20213;-49
2022/08/11 18:00:41;;;;;;;3.33;2.70;;;;;35.80;98936.00;;;;16828458;28;20232;-48
